createdAt,value
2023-03-22T00:01:16.597Z,10.73
2023-03-22T00:03:43.302Z,9.38
2023-03-22T00:06:10.210Z,11.98
2023-03-22T00:08:36.800Z,8.55
2023-03-22T00:11:04.475Z,11.10
2023-03-22T00:13:34.435Z,9.95
2023-03-22T00:18:30.169Z,10.13
2023-03-22T00:20:58.429Z,11.18
2023-03-22T00:23:25.577Z,13.10
2023-03-22T00:25:52.820Z,10.50
2023-03-22T00:28:19.691Z,10.70
2023-03-22T00:31:00.906Z,10.52
2023-03-22T00:33:28.992Z,10.82
2023-03-22T00:36:04.294Z,9.73
2023-03-22T00:38:42.822Z,9.85
2023-03-22T00:41:11.573Z,9.88
2023-03-22T00:43:38.448Z,13.15
2023-03-22T00:46:06.014Z,10.00
2023-03-22T00:48:32.966Z,7.47
2023-03-22T00:50:59.868Z,11.13
2023-03-22T00:53:29.037Z,10.05
2023-03-22T00:55:59.580Z,7.43
2023-03-22T00:58:27.740Z,8.82
2023-03-22T01:00:54.443Z,8.20
2023-03-22T01:03:21.941Z,9.15
2023-03-22T01:05:49.442Z,9.82
2023-03-22T01:08:16.606Z,8.85
2023-03-22T01:10:44.471Z,8.90
2023-03-22T01:13:13.523Z,8.55
2023-03-22T01:15:41.386Z,10.40
2023-03-22T01:18:08.855Z,7.95
2023-03-22T01:20:36.732Z,9.80
2023-03-22T01:23:04.066Z,6.45
2023-03-22T01:25:31.038Z,8.77
2023-03-22T01:27:57.628Z,6.57
2023-03-22T01:30:24.242Z,7.68
2023-03-22T01:32:51.334Z,8.50
2023-03-22T01:35:17.959Z,7.05
2023-03-22T01:37:44.638Z,8.63
2023-03-22T01:40:13.664Z,8.40
2023-03-22T01:42:40.866Z,8.57
2023-03-22T01:45:16.724Z,9.80
2023-03-22T01:47:56.225Z,8.05
2023-03-22T01:50:24.603Z,6.55
2023-03-22T01:52:53.085Z,6.28
2023-03-22T01:55:28.080Z,10.15
2023-03-22T01:58:18.252Z,7.28
2023-03-22T02:00:56.554Z,7.47
2023-03-22T02:03:45.877Z,11.35
2023-03-22T02:06:14.724Z,9.50
2023-03-22T02:08:42.510Z,8.20
2023-03-22T02:11:17.380Z,10.93
2023-03-22T02:14:09.118Z,8.88
2023-03-22T02:17:07.506Z,8.50
2023-03-22T02:19:45.460Z,9.82
2023-03-22T02:22:53.569Z,9.10
2023-03-22T02:25:42.083Z,6.40
2023-03-22T02:28:12.190Z,6.80
2023-03-22T02:30:57.205Z,9.18
2023-03-22T02:33:57.396Z,7.90
2023-03-22T02:36:36.552Z,9.68
2023-03-22T02:39:40.481Z,8.98
2023-03-22T02:42:34.969Z,9.80
2023-03-22T02:45:27.710Z,8.15
2023-03-22T02:47:54.463Z,9.50
2023-03-22T02:50:40.414Z,9.27
2023-03-22T02:53:13.348Z,9.35
2023-03-22T02:55:46.338Z,9.90
2023-03-22T02:58:18.060Z,6.72
2023-03-22T03:00:49.390Z,9.45
2023-03-22T03:03:18.432Z,7.55
2023-03-22T03:05:50.896Z,9.52
2023-03-22T03:08:20.671Z,7.68
2023-03-22T03:10:48.387Z,8.63
2023-03-22T03:13:17.789Z,9.75
2023-03-22T03:15:48.724Z,7.28
2023-03-22T03:18:49.348Z,6.40
2023-03-22T03:21:35.547Z,7.65
2023-03-22T03:24:18.696Z,5.22
2023-03-22T03:27:04.026Z,7.18
2023-03-22T03:29:55.251Z,7.95
2023-03-22T03:32:31.834Z,5.47
2023-03-22T03:35:22.393Z,6.53
2023-03-22T03:38:01.418Z,7.40
2023-03-22T03:40:36.130Z,8.13
2023-03-22T03:43:06.385Z,7.63
2023-03-22T03:45:35.928Z,6.72
2023-03-22T03:48:06.592Z,6.80
2023-03-22T03:53:00.151Z,7.15
2023-03-22T03:55:28.560Z,6.20
2023-03-22T03:57:55.432Z,7.45
2023-03-22T04:00:22.191Z,8.05
2023-03-22T04:03:09.524Z,7.20
2023-03-22T04:05:59.781Z,6.60
2023-03-22T04:08:27.496Z,5.93
2023-03-22T04:10:54.263Z,4.78
2023-03-22T04:13:21.862Z,6.75
2023-03-22T04:15:53.382Z,7.40
2023-03-22T04:18:21.264Z,6.15
2023-03-22T04:20:49.576Z,5.38
2023-03-22T04:23:16.876Z,5.10
2023-03-22T04:25:50.089Z,6.82
2023-03-22T04:28:23.994Z,5.35
2023-03-22T04:30:52.345Z,5.78
2023-03-22T04:33:39.453Z,5.90
2023-03-22T04:36:31.121Z,10.25
2023-03-22T04:39:27.554Z,6.63
2023-03-22T04:42:08.812Z,6.85
2023-03-22T04:44:35.480Z,7.20
2023-03-22T04:47:02.531Z,6.68
2023-03-22T04:49:29.336Z,8.15
2023-03-22T04:51:56.165Z,7.65
2023-03-22T04:54:30.518Z,6.03
2023-03-22T05:00:08.477Z,5.03
2023-03-22T05:02:39.961Z,5.97
2023-03-22T05:05:10.862Z,4.35
2023-03-22T05:07:40.294Z,6.97
2023-03-22T05:10:09.118Z,5.53
2023-03-22T05:12:35.748Z,4.97
2023-03-22T05:15:15.446Z,6.95
2023-03-22T05:17:42.432Z,5.78
2023-03-22T05:20:11.585Z,6.28
2023-03-22T05:22:41.062Z,6.28
2023-03-22T05:25:10.757Z,5.55
2023-03-22T05:27:40.155Z,5.22
2023-03-22T05:30:24.143Z,7.25
2023-03-22T05:33:05.167Z,5.25
2023-03-22T05:35:39.684Z,9.45
2023-03-22T05:38:08.606Z,6.70
2023-03-22T05:40:38.023Z,6.10
2023-03-22T05:43:05.248Z,6.63
2023-03-22T05:45:32.540Z,6.78
2023-03-22T05:48:22.310Z,7.43
2023-03-22T05:50:49.597Z,6.82
2023-03-22T05:53:16.291Z,8.50
2023-03-22T05:55:48.496Z,5.28
2023-03-22T05:58:19.013Z,5.75
2023-03-22T06:00:51.415Z,6.50
2023-03-22T06:03:21.220Z,6.53
2023-03-22T06:06:11.074Z,5.97
2023-03-22T06:09:04.292Z,6.05
2023-03-22T06:11:41.238Z,4.75
2023-03-22T06:14:08.309Z,7.47
2023-03-22T06:16:50.924Z,47.67
2023-03-22T06:19:17.707Z,25.50
2023-03-22T06:21:44.362Z,16.80
2023-03-22T06:24:13.737Z,16.45
2023-03-22T06:26:40.314Z,11.10
2023-03-22T06:29:06.895Z,9.20
2023-03-22T06:31:33.631Z,6.35
2023-03-22T06:36:42.260Z,8.40
2023-03-22T06:39:15.261Z,6.53
2023-03-22T06:41:44.246Z,5.65
2023-03-22T06:44:11.211Z,6.95
2023-03-22T06:46:57.041Z,4.55
2023-03-22T06:49:46.771Z,4.85
2023-03-22T06:52:24.006Z,5.60
2023-03-22T06:54:51.379Z,5.65
2023-03-22T06:57:18.071Z,7.00
2023-03-22T06:59:45.766Z,6.82
2023-03-22T07:02:13.388Z,5.43
2023-03-22T07:04:47.111Z,8.88
2023-03-22T07:07:14.112Z,6.80
2023-03-22T07:09:40.976Z,6.18
2023-03-22T07:12:07.926Z,6.53
2023-03-22T07:14:35.108Z,5.82
2023-03-22T07:17:14.127Z,6.45
2023-03-22T07:19:42.636Z,5.18
2023-03-22T07:22:10.736Z,7.18
2023-03-22T07:24:47.210Z,6.32
2023-03-22T07:27:21.207Z,7.07
2023-03-22T07:29:49.155Z,6.22
2023-03-22T07:32:16.334Z,5.00
2023-03-22T07:35:09.582Z,5.78
2023-03-22T07:37:36.610Z,6.90
2023-03-22T07:40:08.891Z,5.72
2023-03-22T07:42:36.718Z,6.60
2023-03-22T07:45:22.724Z,5.68
2023-03-22T07:48:13.346Z,7.57
2023-03-22T07:51:06.060Z,5.78
2023-03-22T07:53:32.696Z,6.72
2023-03-22T07:55:59.300Z,5.72
2023-03-22T07:58:25.899Z,7.45
2023-03-22T08:00:52.565Z,8.05
2023-03-22T08:03:51.656Z,6.63
2023-03-22T08:06:58.690Z,6.88
2023-03-22T08:09:26.849Z,6.82
2023-03-22T08:11:53.404Z,6.78
2023-03-22T08:14:27.494Z,7.30
2023-03-22T08:17:04.576Z,6.45
2023-03-22T08:19:33.147Z,8.60
2023-03-22T08:22:00.054Z,6.85
2023-03-22T08:24:46.938Z,7.80
2023-03-22T08:27:24.894Z,6.93
2023-03-22T08:29:51.612Z,7.50
2023-03-22T08:32:18.801Z,8.80
2023-03-22T08:34:45.570Z,5.43
2023-03-22T08:37:13.080Z,6.75
2023-03-22T08:39:40.860Z,6.25
2023-03-22T08:42:19.504Z,5.60
2023-03-22T08:44:46.657Z,7.13
2023-03-22T08:47:14.147Z,6.13
2023-03-22T08:49:43.193Z,7.88
2023-03-22T08:52:27.593Z,6.65
2023-03-22T08:54:59.661Z,4.65
2023-03-22T08:57:44.778Z,4.47
2023-03-22T09:00:39.134Z,4.15
2023-03-22T09:03:23.992Z,4.93
2023-03-22T09:05:51.073Z,5.10
2023-03-22T09:08:19.560Z,3.70
2023-03-22T09:10:52.010Z,5.03
2023-03-22T09:13:20.942Z,3.45
2023-03-22T09:15:54.040Z,4.95
2023-03-22T09:18:27.170Z,4.72
2023-03-22T09:20:57.436Z,4.70
2023-03-22T09:23:31.863Z,4.80
2023-03-22T09:26:07.085Z,3.45
2023-03-22T09:28:35.908Z,6.53
2023-03-22T09:33:36.084Z,3.67
2023-03-22T09:36:03.402Z,4.15
2023-03-22T09:38:33.905Z,4.38
2023-03-22T09:41:18.572Z,3.80
2023-03-22T09:43:55.554Z,3.78
2023-03-22T09:46:37.294Z,3.35
2023-03-22T09:49:10.437Z,2.83
2023-03-22T09:51:39.492Z,4.78
2023-03-22T09:54:21.318Z,3.20
2023-03-22T09:56:59.477Z,2.35
2023-03-22T09:59:41.036Z,3.50
2023-03-22T10:02:31.966Z,3.67
2023-03-22T10:05:13.528Z,1.75
2023-03-22T10:07:48.967Z,2.53
2023-03-22T10:10:20.159Z,1.77
2023-03-22T10:13:13.786Z,1.00
2023-03-22T10:15:46.924Z,1.73
2023-03-22T10:18:37.440Z,1.77
2023-03-22T10:21:10.796Z,2.80
2023-03-22T10:23:49.090Z,2.13
2023-03-22T10:26:36.914Z,1.73
2023-03-22T10:29:23.060Z,2.92
2023-03-22T10:31:50.010Z,2.95
2023-03-22T10:34:24.183Z,1.55
2023-03-22T10:36:52.836Z,2.85
2023-03-22T10:39:29.470Z,2.42
2023-03-22T10:41:58.753Z,1.80
2023-03-22T10:44:28.087Z,2.30
2023-03-22T10:46:57.384Z,1.05
2023-03-22T10:49:35.602Z,2.63
2023-03-22T10:52:10.962Z,1.77
2023-03-22T10:54:37.597Z,2.97
2023-03-22T10:57:04.261Z,2.63
2023-03-22T10:59:52.077Z,2.00
2023-03-22T11:02:31.315Z,2.15
2023-03-22T11:05:01.193Z,2.35
2023-03-22T11:07:35.448Z,1.63
2023-03-22T11:10:10.793Z,2.25
2023-03-22T11:12:50.852Z,0.70
2023-03-22T11:15:27.923Z,1.33
2023-03-22T11:18:00.125Z,0.88
2023-03-22T11:20:29.943Z,1.63
2023-03-22T11:23:02.701Z,1.60
2023-03-22T11:25:32.159Z,1.77
2023-03-22T11:28:19.180Z,1.77
2023-03-22T11:31:03.064Z,1.55
2023-03-22T11:33:31.099Z,1.52
2023-03-22T11:36:00.558Z,1.48
2023-03-22T11:38:36.954Z,1.17
2023-03-22T11:41:31.072Z,0.98
2023-03-22T11:44:04.362Z,1.10
2023-03-22T11:46:32.661Z,2.03
2023-03-22T11:49:03.149Z,1.23
2023-03-22T11:54:34.885Z,1.33
2023-03-22T11:57:05.844Z,2.03
2023-03-22T12:00:11.321Z,2.05
2023-03-22T12:03:13.824Z,3.22
2023-03-22T12:05:44.117Z,1.00
2023-03-22T12:10:51.396Z,2.90
2023-03-22T12:13:21.155Z,1.33
2023-03-22T12:15:56.581Z,1.63
2023-03-22T12:18:30.884Z,0.65
2023-03-22T12:20:59.850Z,1.00
2023-03-22T12:23:35.225Z,0.70
2023-03-22T12:26:07.456Z,0.70
2023-03-22T12:28:41.969Z,1.10
2023-03-22T12:31:17.334Z,1.55
2023-03-22T12:34:18.333Z,2.10
2023-03-22T12:36:46.852Z,0.90
2023-03-22T12:39:26.129Z,1.15
2023-03-22T12:41:56.121Z,0.98
2023-03-22T12:44:40.368Z,2.97
2023-03-22T12:47:17.217Z,1.90
2023-03-22T12:49:52.293Z,2.47
2023-03-22T12:52:37.662Z,2.20
2023-03-22T12:55:29.598Z,1.33
2023-03-22T12:57:58.435Z,2.65
2023-03-22T13:00:35.339Z,0.93
2023-03-22T13:03:23.054Z,1.52
2023-03-22T13:06:01.201Z,0.90
2023-03-22T13:09:12.997Z,1.20
2023-03-22T13:11:39.860Z,1.92
2023-03-22T13:14:06.798Z,2.25
2023-03-22T13:16:49.955Z,1.90
2023-03-22T13:19:34.604Z,2.00
2023-03-22T13:22:15.789Z,1.73
2023-03-22T13:25:13.499Z,1.20
2023-03-22T13:27:53.812Z,1.45
2023-03-22T13:30:20.486Z,2.15
2023-03-22T13:33:21.299Z,3.67
2023-03-22T13:35:54.912Z,0.57
2023-03-22T13:38:25.940Z,1.85
2023-03-22T13:41:04.362Z,1.75
2023-03-22T13:43:43.360Z,1.08
2023-03-22T13:46:28.273Z,1.38
2023-03-22T13:49:36.022Z,1.50
2023-03-22T13:52:08.099Z,2.40
2023-03-22T13:54:42.480Z,1.17
2023-03-22T13:57:47.663Z,3.50
2023-03-22T14:00:29.364Z,3.22
2023-03-22T14:03:02.412Z,3.25
2023-03-22T14:05:35.252Z,1.75
2023-03-22T14:08:02.919Z,3.63
2023-03-22T14:10:40.773Z,2.60
2023-03-22T14:13:42.251Z,1.55
2023-03-22T14:16:18.491Z,2.60
2023-03-22T14:18:48.581Z,1.60
2023-03-22T14:21:23.581Z,1.42
